sensor_id;sensor_type;location;lat;lon;timestamp;P1;durP1;ratioP1;P2;durP2;ratioP2
5569;SDS011;2808;51.240;6.794;2023-05-16T00:01:38;12.70;;;5.97;;
5569;SDS011;2808;51.240;6.794;2023-05-16T00:04:06;12.90;;;7.87;;
5569;SDS011;2808;51.240;6.794;2023-05-16T00:06:34;13.10;;;8.23;;
5569;SDS011;2808;51.240;6.794;2023-05-16T00:09:02;14.37;;;7.17;;
5569;SDS011;2808;51.240;6.794;2023-05-16T00:11:29;15.80;;;8.80;;
5569;SDS011;2808;51.240;6.794;2023-05-16T00:13:57;15.83;;;8.60;;
5569;SDS011;2808;51.240;6.794;2023-05-16T00:16:25;13.20;;;7.33;;
5569;SDS011;2808;51.240;6.794;2023-05-16T00:18:54;14.77;;;8.53;;
5569;SDS011;2808;51.240;6.794;2023-05-16T00:21:22;13.67;;;7.43;;
5569;SDS011;2808;51.240;6.794;2023-05-16T00:23:51;12.47;;;6.67;;
5569;SDS011;2808;51.240;6.794;2023-05-16T00:26:18;13.93;;;7.37;;
5569;SDS011;2808;51.240;6.794;2023-05-16T00:28:46;14.33;;;6.30;;
5569;SDS011;2808;51.240;6.794;2023-05-16T00:31:14;13.43;;;6.60;;
5569;SDS011;2808;51.240;6.794;2023-05-16T00:33:41;14.20;;;8.57;;
5569;SDS011;2808;51.240;6.794;2023-05-16T00:36:08;17.13;;;7.67;;
5569;SDS011;2808;51.240;6.794;2023-05-16T00:38:36;12.23;;;7.03;;
5569;SDS011;2808;51.240;6.794;2023-05-16T00:41:04;12.17;;;6.60;;
5569;SDS011;2808;51.240;6.794;2023-05-16T00:43:32;10.10;;;5.70;;
5569;SDS011;2808;51.240;6.794;2023-05-16T00:45:59;13.73;;;4.93;;
5569;SDS011;2808;51.240;6.794;2023-05-16T00:48:27;13.37;;;4.83;;
5569;SDS011;2808;51.240;6.794;2023-05-16T00:50:54;13.90;;;5.40;;
5569;SDS011;2808;51.240;6.794;2023-05-16T00:53:22;9.93;;;4.50;;
5569;SDS011;2808;51.240;6.794;2023-05-16T00:55:50;10.50;;;4.40;;
5569;SDS011;2808;51.240;6.794;2023-05-16T00:58:19;12.67;;;4.77;;
5569;SDS011;2808;51.240;6.794;2023-05-16T01:00:48;13.60;;;4.70;;
5569;SDS011;2808;51.240;6.794;2023-05-16T01:03:15;12.77;;;4.73;;
5569;SDS011;2808;51.240;6.794;2023-05-16T01:05:43;9.37;;;4.00;;
5569;SDS011;2808;51.240;6.794;2023-05-16T01:08:11;12.50;;;5.03;;
5569;SDS011;2808;51.240;6.794;2023-05-16T01:10:40;7.80;;;4.13;;
5569;SDS011;2808;51.240;6.794;2023-05-16T01:13:17;10.90;;;4.37;;
5569;SDS011;2808;51.240;6.794;2023-05-16T01:15:58;14.40;;;6.90;;
5569;SDS011;2808;51.240;6.794;2023-05-16T01:18:32;12.50;;;5.77;;
5569;SDS011;2808;51.240;6.794;2023-05-16T01:21:09;15.30;;;8.17;;
5569;SDS011;2808;51.240;6.794;2023-05-16T01:23:46;11.57;;;5.70;;
5569;SDS011;2808;51.240;6.794;2023-05-16T01:26:20;24.93;;;5.80;;
5569;SDS011;2808;51.240;6.794;2023-05-16T01:28:48;12.83;;;5.80;;
5569;SDS011;2808;51.240;6.794;2023-05-16T01:31:17;10.57;;;5.80;;
5569;SDS011;2808;51.240;6.794;2023-05-16T01:33:44;19.40;;;5.53;;
5569;SDS011;2808;51.240;6.794;2023-05-16T01:36:14;10.97;;;5.27;;
5569;SDS011;2808;51.240;6.794;2023-05-16T01:38:50;12.50;;;5.77;;
5569;SDS011;2808;51.240;6.794;2023-05-16T01:41:28;10.63;;;5.20;;
5569;SDS011;2808;51.240;6.794;2023-05-16T01:44:03;11.73;;;4.53;;
5569;SDS011;2808;51.240;6.794;2023-05-16T01:46:41;11.90;;;4.93;;
5569;SDS011;2808;51.240;6.794;2023-05-16T01:49:14;15.43;;;5.00;;
5569;SDS011;2808;51.240;6.794;2023-05-16T01:51:49;11.90;;;3.97;;
5569;SDS011;2808;51.240;6.794;2023-05-16T01:54:20;15.47;;;4.10;;
5569;SDS011;2808;51.240;6.794;2023-05-16T01:56:51;18.53;;;4.17;;
5569;SDS011;2808;51.240;6.794;2023-05-16T01:59:21;18.33;;;4.83;;
5569;SDS011;2808;51.240;6.794;2023-05-16T02:01:51;17.13;;;5.20;;
5569;SDS011;2808;51.240;6.794;2023-05-16T02:04:20;14.10;;;5.00;;
5569;SDS011;2808;51.240;6.794;2023-05-16T02:06:48;12.40;;;4.10;;
5569;SDS011;2808;51.240;6.794;2023-05-16T02:09:16;13.27;;;3.73;;
5569;SDS011;2808;51.240;6.794;2023-05-16T02:11:43;11.30;;;3.97;;
5569;SDS011;2808;51.240;6.794;2023-05-16T02:14:13;17.77;;;3.50;;
5569;SDS011;2808;51.240;6.794;2023-05-16T02:16:40;16.23;;;4.00;;
5569;SDS011;2808;51.240;6.794;2023-05-16T02:19:07;17.90;;;3.97;;
5569;SDS011;2808;51.240;6.794;2023-05-16T02:21:35;13.67;;;4.00;;
5569;SDS011;2808;51.240;6.794;2023-05-16T02:24:02;13.00;;;3.63;;
5569;SDS011;2808;51.240;6.794;2023-05-16T02:26:30;16.13;;;3.50;;
5569;SDS011;2808;51.240;6.794;2023-05-16T02:28:57;22.57;;;4.20;;
5569;SDS011;2808;51.240;6.794;2023-05-16T02:31:27;13.63;;;3.83;;
5569;SDS011;2808;51.240;6.794;2023-05-16T02:33:55;11.70;;;4.20;;
5569;SDS011;2808;51.240;6.794;2023-05-16T02:36:23;12.30;;;3.20;;
5569;SDS011;2808;51.240;6.794;2023-05-16T02:38:51;16.70;;;3.10;;
5569;SDS011;2808;51.240;6.794;2023-05-16T02:41:18;22.90;;;4.23;;
5569;SDS011;2808;51.240;6.794;2023-05-16T02:43:46;18.73;;;3.77;;
5569;SDS011;2808;51.240;6.794;2023-05-16T02:46:20;14.30;;;3.63;;
5569;SDS011;2808;51.240;6.794;2023-05-16T02:48:49;31.83;;;4.40;;
5569;SDS011;2808;51.240;6.794;2023-05-16T02:51:17;15.80;;;3.80;;
5569;SDS011;2808;51.240;6.794;2023-05-16T02:53:45;23.37;;;4.10;;
5569;SDS011;2808;51.240;6.794;2023-05-16T02:56:12;17.10;;;4.50;;
5569;SDS011;2808;51.240;6.794;2023-05-16T02:58:40;18.30;;;3.90;;
5569;SDS011;2808;51.240;6.794;2023-05-16T03:01:07;19.57;;;3.50;;
5569;SDS011;2808;51.240;6.794;2023-05-16T03:03:35;20.90;;;3.93;;
5569;SDS011;2808;51.240;6.794;2023-05-16T03:06:04;16.40;;;3.50;;
5569;SDS011;2808;51.240;6.794;2023-05-16T03:08:31;22.40;;;4.77;;
5569;SDS011;2808;51.240;6.794;2023-05-16T03:10:59;16.03;;;3.20;;
5569;SDS011;2808;51.240;6.794;2023-05-16T03:13:26;32.83;;;3.60;;
5569;SDS011;2808;51.240;6.794;2023-05-16T03:15:54;23.13;;;4.27;;
5569;SDS011;2808;51.240;6.794;2023-05-16T03:18:22;18.53;;;3.83;;
5569;SDS011;2808;51.240;6.794;2023-05-16T03:20:49;16.37;;;3.10;;
5569;SDS011;2808;51.240;6.794;2023-05-16T03:23:18;24.20;;;4.37;;
5569;SDS011;2808;51.240;6.794;2023-05-16T03:25:46;25.60;;;8.87;;
5569;SDS011;2808;51.240;6.794;2023-05-16T03:28:15;25.00;;;5.00;;
5569;SDS011;2808;51.240;6.794;2023-05-16T03:30:42;28.63;;;6.00;;
5569;SDS011;2808;51.240;6.794;2023-05-16T03:33:10;19.20;;;3.17;;
5569;SDS011;2808;51.240;6.794;2023-05-16T03:35:37;17.20;;;3.33;;
5569;SDS011;2808;51.240;6.794;2023-05-16T03:38:05;17.53;;;3.30;;
5569;SDS011;2808;51.240;6.794;2023-05-16T03:40:34;11.63;;;2.90;;
5569;SDS011;2808;51.240;6.794;2023-05-16T03:43:02;17.87;;;3.07;;
5569;SDS011;2808;51.240;6.794;2023-05-16T03:45:29;15.77;;;3.87;;
5569;SDS011;2808;51.240;6.794;2023-05-16T03:47:56;16.70;;;4.20;;
5569;SDS011;2808;51.240;6.794;2023-05-16T03:50:24;24.57;;;4.60;;
5569;SDS011;2808;51.240;6.794;2023-05-16T03:52:51;24.63;;;5.10;;
5569;SDS011;2808;51.240;6.794;2023-05-16T03:55:19;19.47;;;4.00;;
5569;SDS011;2808;51.240;6.794;2023-05-16T03:57:47;30.67;;;4.60;;
5569;SDS011;2808;51.240;6.794;2023-05-16T04:00:16;20.50;;;4.00;;
5569;SDS011;2808;51.240;6.794;2023-05-16T04:02:44;22.20;;;4.50;;
5569;SDS011;2808;51.240;6.794;2023-05-16T04:05:11;24.17;;;4.70;;
5569;SDS011;2808;51.240;6.794;2023-05-16T04:07:39;23.23;;;6.37;;
5569;SDS011;2808;51.240;6.794;2023-05-16T04:10:07;18.23;;;5.03;;
5569;SDS011;2808;51.240;6.794;2023-05-16T04:12:35;29.63;;;9.00;;
5569;SDS011;2808;51.240;6.794;2023-05-16T04:15:05;21.90;;;4.03;;
5569;SDS011;2808;51.240;6.794;2023-05-16T04:17:33;16.03;;;3.30;;
5569;SDS011;2808;51.240;6.794;2023-05-16T04:20:00;16.83;;;3.50;;
5569;SDS011;2808;51.240;6.794;2023-05-16T04:22:28;19.87;;;3.87;;
5569;SDS011;2808;51.240;6.794;2023-05-16T04:24:56;28.33;;;7.93;;
5569;SDS011;2808;51.240;6.794;2023-05-16T04:27:23;24.63;;;4.87;;
5569;SDS011;2808;51.240;6.794;2023-05-16T04:29:52;13.63;;;3.03;;
5569;SDS011;2808;51.240;6.794;2023-05-16T04:32:21;28.27;;;4.90;;
5569;SDS011;2808;51.240;6.794;2023-05-16T04:34:48;24.67;;;4.60;;
5569;SDS011;2808;51.240;6.794;2023-05-16T04:37:18;19.43;;;3.90;;
5569;SDS011;2808;51.240;6.794;2023-05-16T04:39:45;12.20;;;3.63;;
5569;SDS011;2808;51.240;6.794;2023-05-16T04:42:13;24.67;;;6.70;;
5569;SDS011;2808;51.240;6.794;2023-05-16T04:44:40;19.37;;;3.83;;
5569;SDS011;2808;51.240;6.794;2023-05-16T04:47:08;22.80;;;3.60;;
5569;SDS011;2808;51.240;6.794;2023-05-16T04:49:37;15.90;;;3.10;;
5569;SDS011;2808;51.240;6.794;2023-05-16T04:52:04;21.63;;;2.93;;
5569;SDS011;2808;51.240;6.794;2023-05-16T04:54:33;27.00;;;4.20;;
5569;SDS011;2808;51.240;6.794;2023-05-16T04:57:01;32.93;;;6.67;;
5569;SDS011;2808;51.240;6.794;2023-05-16T04:59:29;16.00;;;3.70;;
5569;SDS011;2808;51.240;6.794;2023-05-16T05:01:56;17.00;;;3.50;;
5569;SDS011;2808;51.240;6.794;2023-05-16T05:04:24;18.10;;;3.20;;
5569;SDS011;2808;51.240;6.794;2023-05-16T05:06:53;22.53;;;3.53;;
5569;SDS011;2808;51.240;6.794;2023-05-16T05:09:20;15.73;;;3.30;;
5569;SDS011;2808;51.240;6.794;2023-05-16T05:11:48;20.57;;;3.47;;
5569;SDS011;2808;51.240;6.794;2023-05-16T05:14:16;15.50;;;2.60;;
5569;SDS011;2808;51.240;6.794;2023-05-16T05:16:43;15.20;;;2.93;;
5569;SDS011;2808;51.240;6.794;2023-05-16T05:19:11;15.00;;;3.93;;
5569;SDS011;2808;51.240;6.794;2023-05-16T05:21:38;18.03;;;3.50;;
5569;SDS011;2808;51.240;6.794;2023-05-16T05:24:07;17.30;;;2.97;;
5569;SDS011;2808;51.240;6.794;2023-05-16T05:26:34;14.83;;;3.43;;
5569;SDS011;2808;51.240;6.794;2023-05-16T05:29:01;18.47;;;3.80;;
5569;SDS011;2808;51.240;6.794;2023-05-16T05:31:29;24.90;;;4.50;;
5569;SDS011;2808;51.240;6.794;2023-05-16T05:33:57;17.03;;;3.60;;
5569;SDS011;2808;51.240;6.794;2023-05-16T05:36:30;16.63;;;3.67;;
5569;SDS011;2808;51.240;6.794;2023-05-16T05:38:57;18.50;;;4.00;;
5569;SDS011;2808;51.240;6.794;2023-05-16T05:41:26;18.43;;;3.80;;
5569;SDS011;2808;51.240;6.794;2023-05-16T05:43:55;19.77;;;4.00;;
5569;SDS011;2808;51.240;6.794;2023-05-16T05:46:23;30.20;;;4.80;;
5569;SDS011;2808;51.240;6.794;2023-05-16T05:48:51;19.37;;;3.90;;
5569;SDS011;2808;51.240;6.794;2023-05-16T05:51:18;23.83;;;4.20;;
5569;SDS011;2808;51.240;6.794;2023-05-16T05:53:46;20.27;;;3.90;;
5569;SDS011;2808;51.240;6.794;2023-05-16T05:56:14;20.07;;;3.60;;
5569;SDS011;2808;51.240;6.794;2023-05-16T05:58:42;16.10;;;3.90;;
5569;SDS011;2808;51.240;6.794;2023-05-16T06:01:10;15.63;;;3.73;;
5569;SDS011;2808;51.240;6.794;2023-05-16T06:03:38;18.43;;;3.70;;
5569;SDS011;2808;51.240;6.794;2023-05-16T06:06:05;15.43;;;3.23;;
5569;SDS011;2808;51.240;6.794;2023-05-16T06:08:36;18.13;;;3.67;;
5569;SDS011;2808;51.240;6.794;2023-05-16T06:11:05;24.27;;;3.53;;
5569;SDS011;2808;51.240;6.794;2023-05-16T06:13:33;22.43;;;4.43;;
5569;SDS011;2808;51.240;6.794;2023-05-16T06:16:03;19.33;;;4.17;;
5569;SDS011;2808;51.240;6.794;2023-05-16T06:18:30;21.13;;;3.30;;
5569;SDS011;2808;51.240;6.794;2023-05-16T06:20:58;14.80;;;3.20;;
5569;SDS011;2808;51.240;6.794;2023-05-16T06:23:25;15.67;;;3.40;;
5569;SDS011;2808;51.240;6.794;2023-05-16T06:25:53;10.83;;;2.90;;
5569;SDS011;2808;51.240;6.794;2023-05-16T06:28:20;15.50;;;3.40;;
5569;SDS011;2808;51.240;6.794;2023-05-16T06:30:49;15.90;;;2.90;;
5569;SDS011;2808;51.240;6.794;2023-05-16T06:33:18;19.67;;;4.57;;
5569;SDS011;2808;51.240;6.794;2023-05-16T06:35:45;15.57;;;3.73;;
5569;SDS011;2808;51.240;6.794;2023-05-16T06:38:13;15.83;;;4.10;;
5569;SDS011;2808;51.240;6.794;2023-05-16T06:40:41;13.90;;;3.40;;
5569;SDS011;2808;51.240;6.794;2023-05-16T06:43:08;17.90;;;3.93;;
5569;SDS011;2808;51.240;6.794;2023-05-16T06:45:36;20.53;;;3.53;;
5569;SDS011;2808;51.240;6.794;2023-05-16T06:48:05;17.43;;;4.20;;
5569;SDS011;2808;51.240;6.794;2023-05-16T06:50:34;21.70;;;3.83;;
5569;SDS011;2808;51.240;6.794;2023-05-16T06:53:02;16.27;;;2.80;;
5569;SDS011;2808;51.240;6.794;2023-05-16T06:55:31;22.03;;;3.47;;
5569;SDS011;2808;51.240;6.794;2023-05-16T06:57:58;12.10;;;2.87;;
5569;SDS011;2808;51.240;6.794;2023-05-16T07:00:26;19.43;;;3.03;;
5569;SDS011;2808;51.240;6.794;2023-05-16T07:02:53;15.93;;;3.23;;
5569;SDS011;2808;51.240;6.794;2023-05-16T07:05:20;11.07;;;2.60;;
5569;SDS011;2808;51.240;6.794;2023-05-16T07:07:49;9.27;;;2.80;;
5569;SDS011;2808;51.240;6.794;2023-05-16T07:10:17;17.57;;;2.57;;
5569;SDS011;2808;51.240;6.794;2023-05-16T07:12:45;13.03;;;3.13;;
5569;SDS011;2808;51.240;6.794;2023-05-16T07:15:13;18.27;;;3.20;;
5569;SDS011;2808;51.240;6.794;2023-05-16T07:17:40;13.33;;;2.17;;
5569;SDS011;2808;51.240;6.794;2023-05-16T07:20:08;13.67;;;2.20;;
5569;SDS011;2808;51.240;6.794;2023-05-16T07:22:38;12.70;;;2.23;;
5569;SDS011;2808;51.240;6.794;2023-05-16T07:25:07;16.97;;;2.87;;
5569;SDS011;2808;51.240;6.794;2023-05-16T07:27:37;16.77;;;2.60;;
5569;SDS011;2808;51.240;6.794;2023-05-16T07:30:05;8.27;;;2.83;;
5569;SDS011;2808;51.240;6.794;2023-05-16T07:32:34;9.10;;;2.70;;
5569;SDS011;2808;51.240;6.794;2023-05-16T07:35:02;10.30;;;2.37;;
5569;SDS011;2808;51.240;6.794;2023-05-16T07:37:29;18.33;;;3.30;;
5569;SDS011;2808;51.240;6.794;2023-05-16T07:39:57;17.90;;;2.93;;
5569;SDS011;2808;51.240;6.794;2023-05-16T07:42:26;10.80;;;3.00;;
5569;SDS011;2808;51.240;6.794;2023-05-16T07:44:53;10.90;;;2.47;;
5569;SDS011;2808;51.240;6.794;2023-05-16T07:47:21;12.27;;;3.33;;
5569;SDS011;2808;51.240;6.794;2023-05-16T07:49:48;12.53;;;3.13;;
5569;SDS011;2808;51.240;6.794;2023-05-16T07:52:15;11.03;;;2.03;;
5569;SDS011;2808;51.240;6.794;2023-05-16T07:54:44;13.27;;;2.77;;
5569;SDS011;2808;51.240;6.794;2023-05-16T07:57:12;6.00;;;1.97;;
5569;SDS011;2808;51.240;6.794;2023-05-16T07:59:41;10.27;;;2.00;;
5569;SDS011;2808;51.240;6.794;2023-05-16T08:02:09;11.03;;;2.50;;
5569;SDS011;2808;51.240;6.794;2023-05-16T08:04:37;12.13;;;2.60;;
5569;SDS011;2808;51.240;6.794;2023-05-16T08:07:04;8.53;;;2.10;;
5569;SDS011;2808;51.240;6.794;2023-05-16T08:09:32;11.67;;;2.30;;
5569;SDS011;2808;51.240;6.794;2023-05-16T08:11:59;7.20;;;1.80;;
5569;SDS011;2808;51.240;6.794;2023-05-16T08:14:28;11.40;;;2.50;;
5569;SDS011;2808;51.240;6.794;2023-05-16T08:16:58;11.80;;;1.90;;
5569;SDS011;2808;51.240;6.794;2023-05-16T08:19:25;12.30;;;2.43;;
5569;SDS011;2808;51.240;6.794;2023-05-16T08:21:53;13.37;;;2.90;;
5569;SDS011;2808;51.240;6.794;2023-05-16T08:24:20;8.13;;;2.20;;
5569;SDS011;2808;51.240;6.794;2023-05-16T08:26:48;7.63;;;1.90;;
5569;SDS011;2808;51.240;6.794;2023-05-16T08:29:16;7.90;;;1.70;;
5569;SDS011;2808;51.240;6.794;2023-05-16T08:31:43;8.10;;;2.00;;
5569;SDS011;2808;51.240;6.794;2023-05-16T08:34:12;12.20;;;2.50;;
5569;SDS011;2808;51.240;6.794;2023-05-16T08:36:40;17.47;;;2.10;;
5569;SDS011;2808;51.240;6.794;2023-05-16T08:39:07;11.83;;;2.80;;
5569;SDS011;2808;51.240;6.794;2023-05-16T08:41:36;8.80;;;2.40;;
5569;SDS011;2808;51.240;6.794;2023-05-16T08:44:05;10.00;;;2.70;;
5569;SDS011;2808;51.240;6.794;2023-05-16T08:46:34;10.17;;;2.30;;
5569;SDS011;2808;51.240;6.794;2023-05-16T08:49:06;14.53;;;2.90;;
5569;SDS011;2808;51.240;6.794;2023-05-16T08:51:37;15.30;;;2.50;;
5569;SDS011;2808;51.240;6.794;2023-05-16T08:54:05;14.03;;;2.60;;
5569;SDS011;2808;51.240;6.794;2023-05-16T08:56:38;9.90;;;2.00;;
5569;SDS011;2808;51.240;6.794;2023-05-16T08:59:07;7.40;;;1.90;;
5569;SDS011;2808;51.240;6.794;2023-05-16T09:01:35;10.80;;;2.33;;
5569;SDS011;2808;51.240;6.794;2023-05-16T09:04:05;7.97;;;1.80;;
5569;SDS011;2808;51.240;6.794;2023-05-16T09:06:34;12.60;;;2.00;;
5569;SDS011;2808;51.240;6.794;2023-05-16T09:09:03;6.93;;;1.70;;
5569;SDS011;2808;51.240;6.794;2023-05-16T09:11:32;9.13;;;2.00;;
5569;SDS011;2808;51.240;6.794;2023-05-16T09:14:00;5.13;;;1.57;;
5569;SDS011;2808;51.240;6.794;2023-05-16T09:16:28;8.07;;;2.13;;
5569;SDS011;2808;51.240;6.794;2023-05-16T09:18:57;11.07;;;2.17;;
5569;SDS011;2808;51.240;6.794;2023-05-16T09:21:26;6.10;;;1.73;;
5569;SDS011;2808;51.240;6.794;2023-05-16T09:23:57;11.30;;;2.10;;
5569;SDS011;2808;51.240;6.794;2023-05-16T09:26:29;8.97;;;1.63;;
5569;SDS011;2808;51.240;6.794;2023-05-16T09:28:58;7.90;;;1.70;;
5569;SDS011;2808;51.240;6.794;2023-05-16T09:31:26;13.30;;;2.60;;
5569;SDS011;2808;51.240;6.794;2023-05-16T09:34:00;7.30;;;1.43;;
5569;SDS011;2808;51.240;6.794;2023-05-16T09:36:30;16.20;;;2.00;;
5569;SDS011;2808;51.240;6.794;2023-05-16T09:38:59;11.43;;;1.70;;
5569;SDS011;2808;51.240;6.794;2023-05-16T09:41:27;9.20;;;1.97;;
5569;SDS011;2808;51.240;6.794;2023-05-16T09:43:58;11.13;;;2.37;;
5569;SDS011;2808;51.240;6.794;2023-05-16T09:46:28;7.33;;;1.77;;
5569;SDS011;2808;51.240;6.794;2023-05-16T09:48:56;7.80;;;2.00;;
5569;SDS011;2808;51.240;6.794;2023-05-16T09:51:23;10.33;;;2.33;;
5569;SDS011;2808;51.240;6.794;2023-05-16T09:53:51;11.07;;;2.00;;
5569;SDS011;2808;51.240;6.794;2023-05-16T09:56:20;7.27;;;1.90;;
5569;SDS011;2808;51.240;6.794;2023-05-16T09:58:50;5.90;;;1.60;;
5569;SDS011;2808;51.240;6.794;2023-05-16T10:01:18;8.40;;;1.83;;
5569;SDS011;2808;51.240;6.794;2023-05-16T10:03:45;7.20;;;1.60;;
5569;SDS011;2808;51.240;6.794;2023-05-16T10:06:12;7.03;;;1.80;;
5569;SDS011;2808;51.240;6.794;2023-05-16T10:08:41;9.93;;;1.77;;
5569;SDS011;2808;51.240;6.794;2023-05-16T10:11:09;8.07;;;1.50;;
5569;SDS011;2808;51.240;6.794;2023-05-16T10:13:38;10.10;;;2.53;;
5569;SDS011;2808;51.240;6.794;2023-05-16T10:16:06;8.40;;;1.67;;
5569;SDS011;2808;51.240;6.794;2023-05-16T10:18:37;6.03;;;1.53;;
5569;SDS011;2808;51.240;6.794;2023-05-16T10:21:06;8.90;;;1.87;;
5569;SDS011;2808;51.240;6.794;2023-05-16T10:23:35;10.40;;;2.33;;
5569;SDS011;2808;51.240;6.794;2023-05-16T10:26:06;6.00;;;2.13;;
5569;SDS011;2808;51.240;6.794;2023-05-16T10:28:34;10.00;;;2.33;;
5569;SDS011;2808;51.240;6.794;2023-05-16T10:31:04;14.07;;;3.03;;
5569;SDS011;2808;51.240;6.794;2023-05-16T10:33:33;11.60;;;3.07;;
5569;SDS011;2808;51.240;6.794;2023-05-16T10:36:02;8.67;;;2.00;;
5569;SDS011;2808;51.240;6.794;2023-05-16T10:38:31;11.93;;;2.30;;
5569;SDS011;2808;51.240;6.794;2023-05-16T10:41:00;9.87;;;2.10;;
5569;SDS011;2808;51.240;6.794;2023-05-16T10:43:28;11.47;;;2.00;;
5569;SDS011;2808;51.240;6.794;2023-05-16T10:45:58;10.93;;;2.20;;
5569;SDS011;2808;51.240;6.794;2023-05-16T10:48:30;12.30;;;2.37;;
5569;SDS011;2808;51.240;6.794;2023-05-16T10:50:59;14.73;;;2.63;;
5569;SDS011;2808;51.240;6.794;2023-05-16T10:53:29;13.67;;;2.20;;
5569;SDS011;2808;51.240;6.794;2023-05-16T10:56:05;11.50;;;2.40;;
5569;SDS011;2808;51.240;6.794;2023-05-16T10:58:40;8.87;;;2.50;;
5569;SDS011;2808;51.240;6.794;2023-05-16T11:01:15;13.80;;;4.40;;
5569;SDS011;2808;51.240;6.794;2023-05-16T11:06:30;10.23;;;3.10;;
5569;SDS011;2808;51.240;6.794;2023-05-16T11:09:05;8.63;;;1.73;;
5569;SDS011;2808;51.240;6.794;2023-05-16T11:11:43;6.63;;;1.90;;
5569;SDS011;2808;51.240;6.794;2023-05-16T11:14:19;12.27;;;2.30;;
5569;SDS011;2808;51.240;6.794;2023-05-16T11:16:47;13.33;;;2.30;;
5569;SDS011;2808;51.240;6.794;2023-05-16T11:19:29;9.57;;;2.37;;
5569;SDS011;2808;51.240;6.794;2023-05-16T11:22:05;11.63;;;2.23;;
5569;SDS011;2808;51.240;6.794;2023-05-16T11:24:47;11.37;;;1.87;;
5569;SDS011;2808;51.240;6.794;2023-05-16T11:27:19;6.07;;;1.60;;
5569;SDS011;2808;51.240;6.794;2023-05-16T11:29:48;10.87;;;2.00;;
5569;SDS011;2808;51.240;6.794;2023-05-16T11:32:18;10.90;;;2.10;;
5569;SDS011;2808;51.240;6.794;2023-05-16T11:34:48;12.70;;;2.00;;
5569;SDS011;2808;51.240;6.794;2023-05-16T11:37:16;16.83;;;1.93;;
5569;SDS011;2808;51.240;6.794;2023-05-16T11:39:45;13.03;;;2.20;;
5569;SDS011;2808;51.240;6.794;2023-05-16T11:42:12;10.23;;;2.57;;
5569;SDS011;2808;51.240;6.794;2023-05-16T11:44:40;10.23;;;2.03;;
5569;SDS011;2808;51.240;6.794;2023-05-16T11:47:07;8.13;;;1.83;;
5569;SDS011;2808;51.240;6.794;2023-05-16T11:49:35;7.80;;;1.50;;
5569;SDS011;2808;51.240;6.794;2023-05-16T11:52:04;10.90;;;2.67;;
5569;SDS011;2808;51.240;6.794;2023-05-16T11:54:33;6.20;;;2.53;;
5569;SDS011;2808;51.240;6.794;2023-05-16T11:57:01;6.30;;;1.70;;
5569;SDS011;2808;51.240;6.794;2023-05-16T11:59:28;5.23;;;1.70;;
5569;SDS011;2808;51.240;6.794;2023-05-16T12:01:56;8.03;;;1.53;;
5569;SDS011;2808;51.240;6.794;2023-05-16T12:04:23;7.40;;;1.67;;
5569;SDS011;2808;51.240;6.794;2023-05-16T12:06:58;8.10;;;1.30;;
5569;SDS011;2808;51.240;6.794;2023-05-16T12:09:27;5.50;;;1.53;;
5569;SDS011;2808;51.240;6.794;2023-05-16T12:11:55;5.97;;;1.73;;
5569;SDS011;2808;51.240;6.794;2023-05-16T12:14:22;5.33;;;1.50;;
5569;SDS011;2808;51.240;6.794;2023-05-16T12:16:51;5.27;;;1.50;;
5569;SDS011;2808;51.240;6.794;2023-05-16T12:19:19;3.90;;;1.27;;
5569;SDS011;2808;51.240;6.794;2023-05-16T12:21:50;5.60;;;1.50;;
5569;SDS011;2808;51.240;6.794;2023-05-16T12:24:19;5.27;;;1.37;;
5569;SDS011;2808;51.240;6.794;2023-05-16T12:26:48;7.70;;;1.40;;
5569;SDS011;2808;51.240;6.794;2023-05-16T12:29:18;6.17;;;1.50;;
5569;SDS011;2808;51.240;6.794;2023-05-16T12:31:51;4.70;;;1.10;;
5569;SDS011;2808;51.240;6.794;2023-05-16T12:34:18;4.10;;;1.00;;
5569;SDS011;2808;51.240;6.794;2023-05-16T12:36:51;8.60;;;1.80;;
5569;SDS011;2808;51.240;6.794;2023-05-16T12:39:22;7.00;;;1.33;;
5569;SDS011;2808;51.240;6.794;2023-05-16T12:41:51;6.40;;;2.83;;
5569;SDS011;2808;51.240;6.794;2023-05-16T12:44:18;7.33;;;1.63;;
5569;SDS011;2808;51.240;6.794;2023-05-16T12:46:49;8.57;;;1.50;;
5569;SDS011;2808;51.240;6.794;2023-05-16T12:49:19;5.67;;;1.40;;
5569;SDS011;2808;51.240;6.794;2023-05-16T12:51:47;6.83;;;1.80;;
5569;SDS011;2808;51.240;6.794;2023-05-16T12:54:16;6.00;;;1.33;;
5569;SDS011;2808;51.240;6.794;2023-05-16T12:56:44;7.57;;;1.50;;
5569;SDS011;2808;51.240;6.794;2023-05-16T12:59:13;4.87;;;1.70;;
5569;SDS011;2808;51.240;6.794;2023-05-16T13:01:40;6.77;;;1.70;;
5569;SDS011;2808;51.240;6.794;2023-05-16T13:04:09;4.47;;;1.40;;
5569;SDS011;2808;51.240;6.794;2023-05-16T13:06:40;6.37;;;1.37;;
5569;SDS011;2808;51.240;6.794;2023-05-16T13:09:08;6.90;;;1.70;;
5569;SDS011;2808;51.240;6.794;2023-05-16T13:11:36;5.70;;;2.50;;
5569;SDS011;2808;51.240;6.794;2023-05-16T13:14:03;12.00;;;4.50;;
5569;SDS011;2808;51.240;6.794;2023-05-16T13:16:32;5.63;;;1.60;;
5569;SDS011;2808;51.240;6.794;2023-05-16T13:19:00;5.60;;;1.73;;
5569;SDS011;2808;51.240;6.794;2023-05-16T13:21:27;4.23;;;1.23;;
5569;SDS011;2808;51.240;6.794;2023-05-16T13:23:56;5.73;;;1.47;;
5569;SDS011;2808;51.240;6.794;2023-05-16T13:26:23;4.60;;;1.23;;
5569;SDS011;2808;51.240;6.794;2023-05-16T13:28:51;5.30;;;1.30;;
5569;SDS011;2808;51.240;6.794;2023-05-16T13:31:19;6.47;;;1.30;;
5569;SDS011;2808;51.240;6.794;2023-05-16T13:33:48;6.40;;;1.60;;
5569;SDS011;2808;51.240;6.794;2023-05-16T13:36:16;6.70;;;1.77;;
5569;SDS011;2808;51.240;6.794;2023-05-16T13:38:43;6.20;;;1.27;;
5569;SDS011;2808;51.240;6.794;2023-05-16T13:41:11;7.77;;;1.47;;
5569;SDS011;2808;51.240;6.794;2023-05-16T13:43:38;6.30;;;1.40;;
5569;SDS011;2808;51.240;6.794;2023-05-16T13:46:06;3.73;;;1.30;;
5569;SDS011;2808;51.240;6.794;2023-05-16T13:48:33;8.50;;;1.77;;
5569;SDS011;2808;51.240;6.794;2023-05-16T13:51:02;5.67;;;1.37;;
5569;SDS011;2808;51.240;6.794;2023-05-16T13:53:30;4.83;;;2.03;;
5569;SDS011;2808;51.240;6.794;2023-05-16T13:55:57;11.07;;;4.07;;
5569;SDS011;2808;51.240;6.794;2023-05-16T13:58:26;9.33;;;2.70;;
5569;SDS011;2808;51.240;6.794;2023-05-16T14:00:53;7.13;;;2.33;;
5569;SDS011;2808;51.240;6.794;2023-05-16T14:03:21;8.17;;;1.60;;
5569;SDS011;2808;51.240;6.794;2023-05-16T14:05:48;5.10;;;1.70;;
5569;SDS011;2808;51.240;6.794;2023-05-16T14:08:17;5.63;;;1.53;;
5569;SDS011;2808;51.240;6.794;2023-05-16T14:10:45;5.60;;;1.30;;
5569;SDS011;2808;51.240;6.794;2023-05-16T14:13:12;4.93;;;1.30;;
5569;SDS011;2808;51.240;6.794;2023-05-16T14:15:40;5.60;;;1.67;;
5569;SDS011;2808;51.240;6.794;2023-05-16T14:18:07;7.73;;;1.90;;
5569;SDS011;2808;51.240;6.794;2023-05-16T14:20:35;5.80;;;1.57;;
5569;SDS011;2808;51.240;6.794;2023-05-16T14:23:02;5.70;;;1.70;;
5569;SDS011;2808;51.240;6.794;2023-05-16T14:25:31;6.10;;;1.63;;
5569;SDS011;2808;51.240;6.794;2023-05-16T14:27:58;8.80;;;1.83;;
5569;SDS011;2808;51.240;6.794;2023-05-16T14:30:26;6.00;;;1.53;;
5569;SDS011;2808;51.240;6.794;2023-05-16T14:32:53;8.83;;;1.77;;
5569;SDS011;2808;51.240;6.794;2023-05-16T14:35:23;5.70;;;2.00;;
5569;SDS011;2808;51.240;6.794;2023-05-16T14:37:50;9.73;;;1.80;;
5569;SDS011;2808;51.240;6.794;2023-05-16T14:40:18;5.57;;;1.83;;
5569;SDS011;2808;51.240;6.794;2023-05-16T14:42:48;5.30;;;1.63;;
5569;SDS011;2808;51.240;6.794;2023-05-16T14:45:16;4.83;;;1.83;;
5569;SDS011;2808;51.240;6.794;2023-05-16T14:47:43;7.07;;;1.83;;
5569;SDS011;2808;51.240;6.794;2023-05-16T14:50:12;7.10;;;1.80;;
5569;SDS011;2808;51.240;6.794;2023-05-16T14:52:40;7.63;;;2.17;;
5569;SDS011;2808;51.240;6.794;2023-05-16T14:55:07;7.30;;;2.10;;
5569;SDS011;2808;51.240;6.794;2023-05-16T14:57:35;13.23;;;1.80;;
5569;SDS011;2808;51.240;6.794;2023-05-16T15:00:04;5.10;;;1.80;;
5569;SDS011;2808;51.240;6.794;2023-05-16T15:02:33;7.07;;;2.30;;
5569;SDS011;2808;51.240;6.794;2023-05-16T15:05:00;7.23;;;2.17;;
5569;SDS011;2808;51.240;6.794;2023-05-16T15:07:28;7.90;;;1.83;;
5569;SDS011;2808;51.240;6.794;2023-05-16T15:09:56;4.13;;;1.50;;
5569;SDS011;2808;51.240;6.794;2023-05-16T15:12:24;6.57;;;2.13;;
5569;SDS011;2808;51.240;6.794;2023-05-16T15:14:51;5.80;;;2.03;;
5569;SDS011;2808;51.240;6.794;2023-05-16T15:17:20;8.23;;;1.90;;